ADDS METAR Data INFO
IDs: Format: Raw Decoded Include TAF

Data at: 0753 UTC 23 Jul 2018

KSAF 230653Z AUTO 03008KT 10SM CLR 26/07 A3026 RMK AO2 SLP107 T02610067 403720172
KSAF 230553Z AUTO 05012KT 10SM CLR 27/05 A3025 RMK AO2 WSHFT 0530 SLP108 T02720050 10356 20250 51009
KSAF 230550Z AUTO 05011KT 10SM CLR 27/05 A3025 RMK AO2 WSHFT 0530
KSAF 230453Z AUTO 36011KT 10SM CLR 28/04 A3023 RMK AO2 SLP103 T02780039
KSAF 230353Z AUTO VRB03KT 10SM CLR 29/02 A3022 RMK AO2 SLP098 T02940017
KSAF 230253Z AUTO 24004KT 10SM CLR 29/01 A3020 RMK AO2 SLP096 T02940011 53002
KSAF 230153Z 23007KT 10SM CLR 32/00 A3019 RMK AO2 SLP097 T03170000
KSAF 230053Z 25007KT 10SM CLR 34/M02 A3019 RMK AO2 SLP095 T03441017
KSAF 222353Z 27012G17KT 10SM CLR 36/M02 A3019 RMK AO2 SLP096 T03561017 10372 20322 56008
KSAF 222253Z 27009G18KT 10SM CLR 36/M01 A3020 RMK AO2 SLP095 T03611006
KSAF 222153Z 22009G17KT 10SM CLR 36/M01 A3020 RMK AO2 SLP095 T03611006
KSAF 222053Z 24014G18KT 10SM CLR 37/M02 A3022 RMK AO2 SLP094 T03671022 56018
KSAF 221953Z VRB06G18KT 10SM CLR 36/00 A3023 RMK AO2 SLP101 T03560000
KSAF 221853Z 26005KT 10SM CLR 34/03 A3026 RMK AO2 SLP111 T03440028
KSAF 221753Z 23009KT 10SM CLR 33/03 A3029 RMK AO2 SLP123 T03280033 10333 20172 58009
KSAF 221653Z VRB06KT 10SM CLR 31/04 A3030 RMK AO2 SLP129 T03060039
KSAF 221553Z 36003KT 10SM CLR 29/04 A3031 RMK AO2 SLP131 T02890039
KSAF 221453Z 01008KT 10SM CLR 26/06 A3032 RMK AO2 SLP137 T02610056 51007
KSAF 221353Z 35009KT 10SM CLR 23/04 A3031 RMK AO2 SLP135 T02280044
KSAF 221253Z AUTO 36006KT 10SM CLR 19/02 A3031 RMK AO2 SLP140 T01890022
KSAF 221153Z AUTO 01007KT 10SM CLR 18/02 A3029 RMK AO2 SLP132 T01830022 10250 20178 53008
KSAF 221053Z AUTO 36006KT 10SM CLR 19/03 A3028 RMK AO2 SLP125 T01890028
KSAF 220953Z AUTO 35004KT 10SM CLR 21/02 A3026 RMK AO2 SLP117 T02110022
KSAF 220853Z AUTO 13009KT 10SM CLR 24/03 A3026 RMK AO2 SLP113 T02390028 56005
KSAF 220753Z AUTO 14005KT 10SM CLR 24/02 A3027 RMK AO2 SLP115 T02440017
KSAF 220653Z AUTO 11011KT 10SM CLR 25/01 A3027 RMK AO2 SLP116 T02500006 403670194
KSAF 220553Z AUTO 12009KT 10SM CLR 25/01 A3028 RMK AO2 SLP121 T02500006 10350 20250 51016
KSAF 220453Z AUTO 12010KT 10SM CLR 26/01 A3028 RMK AO2 SLP122 T02610006
KSAF 220353Z AUTO 13009KT 10SM CLR 27/02 A3026 RMK AO2 SLP115 T02720017
KSAF 220253Z AUTO 13011KT 10SM CLR 29/01 A3022 RMK AO2 SLP103 T02940011 53012
KSAF 220153Z 14014KT 10SM CLR 32/01 A3020 RMK AO2 SLP093 T03220006
KSAF 220053Z 19006KT 10SM CLR 33/00 A3018 RMK AO2 SLP091 T03330000
KSAF 212353Z 14012G19KT 10SM CLR 35/01 A3018 RMK AO2 SLP090 T03500006 10367 20317 56013
KSAF 212253Z 17007KT 10SM CLR 35/00 A3020 RMK AO2 WSHFT 2216 SLP092 T03500000
KSAF 212236Z 20008KT 10SM CLR 35/M01 A3020 RMK AO2 WSHFT 2216 T03501006
KSAF 212153Z 00000KT 10SM CLR 36/00 A3021 RMK AO2 SLP095 T03560000
KSAF 212053Z 18012G20KT 10SM CLR 35/01 A3023 RMK AO2 SLP103 T03500011 57016